createdAt,value
2022-08-05T00:00:15.950Z,20.61
2022-08-05T00:02:44.075Z,20.60
2022-08-05T00:05:27.485Z,20.58
2022-08-05T00:08:32.815Z,20.56
2022-08-05T00:10:56.739Z,20.56
2022-08-05T00:13:38.121Z,20.54
2022-08-05T00:16:09.576Z,20.51
2022-08-05T00:18:39.725Z,20.48
2022-08-05T00:21:07.006Z,20.47
2022-08-05T00:23:46.123Z,20.45
2022-08-05T00:26:20.568Z,20.45
2022-08-05T00:28:47.099Z,20.45
2022-08-05T00:31:15.854Z,20.44
2022-08-05T00:34:53.951Z,20.42
2022-08-05T00:37:11.270Z,20.38
2022-08-05T00:39:16.166Z,20.33
2022-08-05T00:41:55.126Z,20.28
2022-08-05T00:44:30.810Z,20.28
2022-08-05T00:47:01.611Z,20.31
2022-08-05T00:49:32.565Z,20.31
2022-08-05T00:52:10.840Z,20.27
2022-08-05T00:54:38.594Z,20.25
2022-08-05T00:57:05.345Z,20.23
2022-08-05T00:59:34.428Z,20.20
2022-08-05T01:02:01.273Z,20.19
2022-08-05T01:04:29.917Z,20.19
2022-08-05T01:06:56.814Z,20.14
2022-08-05T01:09:23.361Z,20.09
2022-08-05T01:11:53.731Z,20.07
2022-08-05T01:14:32.355Z,20.07
2022-08-05T01:17:10.791Z,20.05
2022-08-05T01:20:01.037Z,20.04
2022-08-05T01:22:40.682Z,20.01
2022-08-05T01:25:19.317Z,19.98
2022-08-05T01:27:55.840Z,19.95
2022-08-05T01:30:34.262Z,19.93
2022-08-05T01:33:08.523Z,19.93
2022-08-05T01:35:50.756Z,19.92
2022-08-05T01:38:27.101Z,19.91
2022-08-05T01:40:59.585Z,19.91
2022-08-05T01:43:28.133Z,19.89
2022-08-05T01:45:57.155Z,19.87
2022-08-05T01:48:27.195Z,19.91
2022-08-05T01:50:56.588Z,19.93
2022-08-05T01:53:54.566Z,19.94
2022-08-05T01:58:09.944Z,19.97
2022-08-05T01:59:06.145Z,19.92
2022-08-05T02:01:39.914Z,19.91
2022-08-05T02:04:10.324Z,19.90
2022-08-05T02:06:39.193Z,19.91
2022-08-05T02:09:07.440Z,19.88
2022-08-05T02:11:47.855Z,19.85
2022-08-05T02:14:27.371Z,19.84
2022-08-05T02:17:00.198Z,19.81
2022-08-05T02:19:47.031Z,19.79
2022-08-05T02:22:26.787Z,19.79
2022-08-05T02:25:02.550Z,19.79
2022-08-05T02:27:57.880Z,19.81
2022-08-05T02:30:21.509Z,19.81
2022-08-05T02:32:53.358Z,19.76
2022-08-05T02:35:27.976Z,19.69
2022-08-05T02:37:56.697Z,19.67
2022-08-05T02:40:27.541Z,19.64
2022-08-05T02:42:56.490Z,19.63
2022-08-05T02:45:25.223Z,19.57
2022-08-05T02:48:06.537Z,19.54
2022-08-05T02:50:44.113Z,19.51
2022-08-05T02:53:16.155Z,19.49
2022-08-05T02:55:54.688Z,19.50
2022-08-05T02:58:27.465Z,19.48
2022-08-05T03:00:57.469Z,19.42
2022-08-05T03:03:24.532Z,19.38
2022-08-05T03:06:54.728Z,19.37
2022-08-05T03:08:42.444Z,19.33
2022-08-05T03:11:57.284Z,19.33
2022-08-05T03:14:09.062Z,19.37
2022-08-05T03:16:39.850Z,19.36
2022-08-05T03:19:16.911Z,19.31
2022-08-05T03:21:49.545Z,19.30
2022-08-05T03:24:30.155Z,19.31
2022-08-05T03:26:59.457Z,19.35
2022-08-05T03:29:44.804Z,19.37
2022-08-05T03:32:15.516Z,19.36
2022-08-05T03:34:51.145Z,19.33
2022-08-05T03:37:19.175Z,19.31
2022-08-05T03:39:59.198Z,19.32
2022-08-05T03:42:29.104Z,19.30
2022-08-05T03:44:56.062Z,19.27
2022-08-05T03:47:23.980Z,19.25
2022-08-05T03:49:52.311Z,19.29
2022-08-05T03:52:38.840Z,19.26
2022-08-05T03:56:00.919Z,19.23
2022-08-05T03:58:29.235Z,19.23
2022-08-05T04:00:59.993Z,19.20
2022-08-05T04:03:29.301Z,19.21
2022-08-05T04:05:59.151Z,19.24
2022-08-05T04:08:34.712Z,19.25
2022-08-05T04:11:06.017Z,19.25
2022-08-05T04:13:49.757Z,19.30
2022-08-05T04:16:24.201Z,19.29
2022-08-05T04:18:54.235Z,19.27
2022-08-05T04:22:09.301Z,19.27
2022-08-05T04:24:08.943Z,19.22
2022-08-05T04:26:36.090Z,19.21
2022-08-05T04:29:07.362Z,19.18
2022-08-05T04:31:38.545Z,19.12
2022-08-05T04:34:31.643Z,19.10
2022-08-05T04:36:58.071Z,19.09
2022-08-05T04:39:24.721Z,19.07
2022-08-05T04:41:54.538Z,19.08
2022-08-05T04:44:29.705Z,19.08
2022-08-05T04:47:09.889Z,19.06
2022-08-05T04:50:02.610Z,19.07
2022-08-05T04:52:27.906Z,19.04
2022-08-05T04:54:57.353Z,19.04
2022-08-05T04:57:29.164Z,19.04
2022-08-05T04:59:56.968Z,19.07
2022-08-05T05:02:41.380Z,19.09
2022-08-05T05:05:16.706Z,19.07
2022-08-05T05:08:01.698Z,19.06
2022-08-05T05:10:29.908Z,19.03
2022-08-05T05:12:59.315Z,19.02
2022-08-05T05:15:57.031Z,19.02
2022-08-05T05:18:31.425Z,19.00
2022-08-05T05:21:00.366Z,19.00
2022-08-05T05:23:26.945Z,19.03
2022-08-05T05:26:09.937Z,19.03
2022-08-05T05:28:38.971Z,19.06
2022-08-05T05:31:09.487Z,19.11
2022-08-05T05:33:59.835Z,19.15
2022-08-05T05:37:03.842Z,19.17
2022-08-05T05:39:36.109Z,19.17
2022-08-05T05:42:03.011Z,19.14
2022-08-05T05:44:36.403Z,19.10
2022-08-05T05:47:04.195Z,19.08
2022-08-05T05:49:31.375Z,19.05
2022-08-05T05:52:01.103Z,19.03
2022-08-05T05:54:50.134Z,19.05
2022-08-05T05:57:19.156Z,19.23
2022-08-05T05:59:46.846Z,19.41
2022-08-05T06:02:15.304Z,19.46
2022-08-05T06:04:43.442Z,19.46
2022-08-05T06:07:16.361Z,19.54
2022-08-05T06:10:00.045Z,19.57
2022-08-05T06:12:28.325Z,19.59
2022-08-05T06:14:55.272Z,19.65
2022-08-05T06:17:53.048Z,19.73
2022-08-05T06:20:18.838Z,19.98
2022-08-05T06:22:48.094Z,20.24
2022-08-05T06:25:59.340Z,20.42
2022-08-05T06:28:12.583Z,20.45
2022-08-05T06:30:47.811Z,20.48
2022-08-05T06:33:19.387Z,20.59
2022-08-05T06:36:07.749Z,20.73
2022-08-05T06:38:37.233Z,20.86
2022-08-05T06:41:07.926Z,20.88
2022-08-05T06:43:58.027Z,20.80
2022-08-05T06:46:21.320Z,20.79
2022-08-05T06:48:56.455Z,20.89
2022-08-05T06:51:30.106Z,20.95
2022-08-05T06:53:58.797Z,21.02
2022-08-05T06:56:26.432Z,21.00
2022-08-05T06:58:53.521Z,20.89
2022-08-05T07:01:20.754Z,20.87
2022-08-05T07:03:47.622Z,20.81
2022-08-05T07:06:15.146Z,20.90
2022-08-05T07:08:47.477Z,20.91
2022-08-05T07:11:22.122Z,20.89
2022-08-05T07:14:15.529Z,20.93
2022-08-05T07:17:59.465Z,20.86
2022-08-05T07:22:28.961Z,20.80
2022-08-05T07:25:09.516Z,20.78
2022-08-05T07:27:58.829Z,20.69
2022-08-05T07:30:32.431Z,20.70
2022-08-05T07:32:59.494Z,20.69
2022-08-05T07:36:03.729Z,20.77
2022-08-05T07:38:26.464Z,20.78
2022-08-05T07:41:04.484Z,20.85
2022-08-05T07:43:46.957Z,20.94
2022-08-05T07:46:18.915Z,20.96
2022-08-05T07:49:02.005Z,21.00
2022-08-05T07:51:40.244Z,21.03
2022-08-05T07:54:15.494Z,21.10
2022-08-05T07:57:02.320Z,21.18
2022-08-05T07:59:31.365Z,21.26
2022-08-05T08:02:15.502Z,21.41
2022-08-05T08:04:44.979Z,21.56
2022-08-05T08:07:12.266Z,21.68
2022-08-05T08:09:38.718Z,21.79
2022-08-05T08:12:14.030Z,21.96
2022-08-05T08:14:47.118Z,22.07
2022-08-05T08:17:15.937Z,22.04
2022-08-05T08:20:42.336Z,21.99
2022-08-05T08:22:34.796Z,22.04
2022-08-05T08:25:03.348Z,22.21
2022-08-05T08:27:39.906Z,22.29
2022-08-05T08:30:19.675Z,22.48
2022-08-05T08:32:58.149Z,22.59
2022-08-05T08:35:35.231Z,22.78
2022-08-05T08:38:07.702Z,23.00
2022-08-05T08:40:35.319Z,22.97
2022-08-05T08:43:20.993Z,22.94
2022-08-05T08:45:52.792Z,22.75
2022-08-05T08:48:42.713Z,22.65
2022-08-05T08:52:01.617Z,22.60
2022-08-05T08:53:53.705Z,22.57
2022-08-05T08:56:23.518Z,22.51
2022-08-05T08:58:54.348Z,22.45
2022-08-05T09:01:21.634Z,22.36
2022-08-05T09:03:54.507Z,22.38
2022-08-05T09:06:28.181Z,22.62
2022-08-05T09:08:58.658Z,22.62
2022-08-05T09:11:50.685Z,22.76
2022-08-05T09:14:58.480Z,22.74
2022-08-05T09:17:00.204Z,22.78
2022-08-05T09:19:36.306Z,22.98
2022-08-05T09:22:23.457Z,23.16
2022-08-05T09:25:24.050Z,23.17
2022-08-05T09:28:03.848Z,23.23
2022-08-05T09:30:31.993Z,23.44
2022-08-05T09:33:02.313Z,23.38
2022-08-05T09:35:29.452Z,23.50
2022-08-05T09:38:12.655Z,23.74
2022-08-05T09:40:51.955Z,24.16
2022-08-05T09:43:41.055Z,24.05
2022-08-05T09:46:27.290Z,23.93
2022-08-05T09:49:08.292Z,23.94
2022-08-05T09:51:48.988Z,23.92
2022-08-05T09:54:21.221Z,23.86
2022-08-05T09:56:55.465Z,23.69
2022-08-05T09:59:24.391Z,23.63
2022-08-05T10:01:58.288Z,23.70
2022-08-05T10:04:35.514Z,23.79
2022-08-05T10:07:14.127Z,23.82
2022-08-05T10:10:14.418Z,23.95
2022-08-05T10:12:50.045Z,24.03
2022-08-05T10:15:22.991Z,24.20
2022-08-05T10:18:14.275Z,24.37
2022-08-05T10:20:47.590Z,24.27
2022-08-05T10:23:34.658Z,24.22
2022-08-05T10:26:07.948Z,24.31
2022-08-05T10:28:42.948Z,24.59
2022-08-05T10:32:49.324Z,24.83
2022-08-05T10:33:59.634Z,25.20
2022-08-05T10:36:27.887Z,25.30
2022-08-05T10:39:10.109Z,25.00
2022-08-05T10:41:49.263Z,25.22
2022-08-05T10:44:23.093Z,25.17
2022-08-05T10:46:54.730Z,25.02
2022-08-05T10:49:33.288Z,25.04
2022-08-05T10:52:03.233Z,25.50
2022-08-05T10:54:56.287Z,25.29
2022-08-05T10:57:31.671Z,25.19
2022-08-05T11:00:19.127Z,25.16
2022-08-05T11:03:25.702Z,25.14
2022-08-05T11:06:17.775Z,24.92
2022-08-05T11:09:16.665Z,25.22
2022-08-05T11:11:53.166Z,25.05
2022-08-05T11:14:57.411Z,24.99
2022-08-05T11:18:00.216Z,25.11
2022-08-05T11:20:41.712Z,24.93
2022-08-05T11:23:33.668Z,25.25
2022-08-05T11:26:28.484Z,25.80
2022-08-05T11:29:06.920Z,25.69
2022-08-05T11:31:57.877Z,25.36
2022-08-05T11:34:39.295Z,25.04
2022-08-05T11:38:30.407Z,25.21
2022-08-05T11:40:00.679Z,25.34
2022-08-05T11:42:32.947Z,25.11
2022-08-05T11:45:23.247Z,24.59
2022-08-05T11:47:55.283Z,24.22
2022-08-05T11:50:22.551Z,24.35
2022-08-05T11:52:52.077Z,24.37
2022-08-05T11:55:21.389Z,24.38
2022-08-05T11:58:09.717Z,24.55
2022-08-05T12:00:39.057Z,24.67
2022-08-05T12:03:23.759Z,24.71
2022-08-05T12:05:59.397Z,24.64
2022-08-05T12:08:26.386Z,24.84
2022-08-05T12:10:53.932Z,25.09
2022-08-05T12:13:27.999Z,25.00
2022-08-05T12:16:14.435Z,25.31
2022-08-05T12:18:42.746Z,25.40
2022-08-05T12:21:26.844Z,25.45
2022-08-05T12:24:08.272Z,25.51
2022-08-05T12:26:47.765Z,25.52
2022-08-05T12:29:22.546Z,25.63
2022-08-05T12:31:54.398Z,25.41
2022-08-05T12:34:33.203Z,25.06
2022-08-05T12:37:17.672Z,24.75
2022-08-05T12:39:51.343Z,24.45
2022-08-05T12:42:20.809Z,24.56
2022-08-05T12:44:48.314Z,24.60
2022-08-05T12:47:28.822Z,24.83
2022-08-05T12:50:03.449Z,25.15
2022-08-05T12:52:38.607Z,25.17
2022-08-05T12:55:25.654Z,25.23
2022-08-05T12:58:38.513Z,25.53
2022-08-05T13:02:02.062Z,25.15
2022-08-05T13:03:35.058Z,25.13
2022-08-05T13:06:12.923Z,25.06
2022-08-05T13:08:39.956Z,25.05
2022-08-05T13:11:07.797Z,25.86
2022-08-05T13:14:06.216Z,26.76
2022-08-05T13:16:28.735Z,27.45
2022-08-05T13:18:58.699Z,26.97
2022-08-05T13:21:27.900Z,26.77
2022-08-05T13:24:04.444Z,26.61
2022-08-05T13:26:31.474Z,26.35
2022-08-05T13:28:59.129Z,26.14
2022-08-05T13:31:33.938Z,25.88
2022-08-05T13:34:20.295Z,25.32
2022-08-05T13:36:52.369Z,25.01
2022-08-05T13:39:24.638Z,24.84
2022-08-05T13:42:05.437Z,24.78
2022-08-05T13:44:32.614Z,24.91
2022-08-05T13:47:08.601Z,24.89
2022-08-05T13:49:35.897Z,24.84
2022-08-05T13:52:11.688Z,24.81
2022-08-05T13:54:39.249Z,24.59
2022-08-05T13:57:07.022Z,24.39
2022-08-05T13:59:34.011Z,24.37
2022-08-05T14:02:04.081Z,24.96
2022-08-05T14:04:54.446Z,26.16
2022-08-05T14:07:26.042Z,26.28
2022-08-05T14:10:19.097Z,26.14
2022-08-05T14:12:54.878Z,25.80
2022-08-05T14:16:05.085Z,25.61
2022-08-05T14:18:18.727Z,26.44
2022-08-05T14:20:54.841Z,27.27
2022-08-05T14:23:25.802Z,27.72
2022-08-05T14:25:58.604Z,27.31
2022-08-05T14:28:27.717Z,26.43
2022-08-05T14:30:55.966Z,26.01
2022-08-05T14:33:23.663Z,26.03
2022-08-05T14:35:52.081Z,25.86
2022-08-05T14:38:31.935Z,25.56
2022-08-05T14:41:07.229Z,25.50
2022-08-05T14:44:01.930Z,25.50
2022-08-05T14:46:28.299Z,25.34
2022-08-05T14:48:55.468Z,26.45
2022-08-05T14:51:22.074Z,26.36
2022-08-05T14:54:26.463Z,26.92
2022-08-05T14:56:38.163Z,27.61
2022-08-05T14:59:11.388Z,27.07
2022-08-05T15:01:48.251Z,26.81
2022-08-05T15:04:16.889Z,26.04
2022-08-05T15:06:48.937Z,25.87
2022-08-05T15:09:52.342Z,25.59
2022-08-05T15:12:09.344Z,25.06
2022-08-05T15:14:46.604Z,24.57
2022-08-05T15:17:44.990Z,24.36
2022-08-05T15:20:04.939Z,24.34
2022-08-05T15:22:31.546Z,24.24
2022-08-05T15:24:59.173Z,23.98
2022-08-05T15:27:26.236Z,23.84
2022-08-05T15:29:58.827Z,23.90
2022-08-05T15:32:28.569Z,23.64
2022-08-05T15:34:55.855Z,23.39
2022-08-05T15:38:33.027Z,23.42
2022-08-05T15:40:59.936Z,23.61
2022-08-05T15:43:01.635Z,23.49
2022-08-05T15:45:45.591Z,23.46
2022-08-05T15:48:20.279Z,23.43
2022-08-05T15:50:47.798Z,23.40
2022-08-05T15:53:15.146Z,23.39
2022-08-05T15:56:02.205Z,23.51
2022-08-05T15:58:35.563Z,24.64
2022-08-05T16:01:16.131Z,25.69
2022-08-05T16:03:50.330Z,26.05
2022-08-05T16:06:20.418Z,26.24
2022-08-05T16:08:47.646Z,26.54
2022-08-05T16:11:14.120Z,26.80
2022-08-05T16:13:41.030Z,27.07
2022-08-05T16:16:07.715Z,26.70
2022-08-05T16:18:51.724Z,26.00
2022-08-05T16:21:19.219Z,25.09
2022-08-05T16:23:54.492Z,24.99
2022-08-05T16:26:26.647Z,25.64
2022-08-05T16:28:54.488Z,25.67
2022-08-05T16:31:21.301Z,25.03
2022-08-05T16:33:47.781Z,24.38
2022-08-05T16:36:14.677Z,24.78
2022-08-05T16:38:54.913Z,25.31
2022-08-05T16:42:13.615Z,25.69
2022-08-05T16:44:10.782Z,26.33
2022-08-05T16:46:38.861Z,26.48
2022-08-05T16:49:09.075Z,26.48
2022-08-05T16:51:42.801Z,26.83
2022-08-05T16:54:25.739Z,26.89
2022-08-05T16:56:55.304Z,26.81
2022-08-05T16:59:22.732Z,27.81
2022-08-05T17:01:54.109Z,28.30
2022-08-05T17:04:23.788Z,28.85
2022-08-05T17:06:54.239Z,29.17
2022-08-05T17:09:21.208Z,28.71
2022-08-05T17:11:51.531Z,28.47
2022-08-05T17:14:34.370Z,27.88
2022-08-05T17:17:05.547Z,26.97
2022-08-05T17:19:31.994Z,25.94
2022-08-05T17:22:00.610Z,25.29
2022-08-05T17:24:33.893Z,25.86
2022-08-05T17:27:07.352Z,26.92
2022-08-05T17:29:41.015Z,27.74
2022-08-05T17:32:16.846Z,28.16
2022-08-05T17:34:45.033Z,27.47
2022-08-05T17:37:40.362Z,26.56
2022-08-05T17:40:10.890Z,26.18
2022-08-05T17:42:42.903Z,25.16
2022-08-05T17:45:21.045Z,24.56
2022-08-05T17:47:53.924Z,24.17
2022-08-05T17:50:29.625Z,23.67
2022-08-05T17:53:01.671Z,23.32
2022-08-05T17:55:38.239Z,23.03
2022-08-05T17:58:09.666Z,22.60
2022-08-05T18:00:44.286Z,22.28
2022-08-05T18:03:11.630Z,21.98
2022-08-05T18:05:53.626Z,21.78
2022-08-05T18:08:20.661Z,21.49
2022-08-05T18:10:47.400Z,21.25
2022-08-05T18:13:15.107Z,21.12
2022-08-05T18:15:42.513Z,20.92
2022-08-05T18:18:11.601Z,20.80
2022-08-05T18:20:38.930Z,20.51
2022-08-05T18:23:11.192Z,20.34
2022-08-05T18:25:45.303Z,20.36
2022-08-05T18:28:16.242Z,20.37
2022-08-05T18:30:51.301Z,20.35
2022-08-05T18:33:22.727Z,20.31
2022-08-05T18:36:03.804Z,20.29
2022-08-05T18:38:35.763Z,20.21
2022-08-05T18:41:53.496Z,20.14
2022-08-05T18:43:49.365Z,19.86
2022-08-05T18:46:19.854Z,19.74
2022-08-05T18:48:51.632Z,19.63
2022-08-05T18:52:06.507Z,19.60
2022-08-05T18:54:28.423Z,19.29
2022-08-05T18:57:01.560Z,19.14
2022-08-05T18:59:44.200Z,19.10
2022-08-05T19:02:27.811Z,19.07
2022-08-05T19:05:02.460Z,19.02
2022-08-05T19:07:48.046Z,18.84
2022-08-05T19:10:16.266Z,18.73
2022-08-05T19:12:43.821Z,18.66
2022-08-05T19:15:56.948Z,18.46
2022-08-05T19:18:09.635Z,18.36
2022-08-05T19:20:41.392Z,18.31
2022-08-05T19:24:03.689Z,18.23
2022-08-05T19:26:01.104Z,18.18
2022-08-05T19:28:29.187Z,18.09
2022-08-05T19:30:55.935Z,18.03
2022-08-05T19:33:35.858Z,17.97
2022-08-05T19:36:05.955Z,17.90
2022-08-05T19:38:35.929Z,17.88
2022-08-05T19:41:07.339Z,17.84
2022-08-05T19:44:06.580Z,17.84
2022-08-05T19:46:30.386Z,17.79
2022-08-05T19:49:03.442Z,17.75
2022-08-05T19:52:05.760Z,17.65
2022-08-05T19:54:29.390Z,17.61
2022-08-05T19:57:06.813Z,17.56
2022-08-05T20:00:01.207Z,17.48
2022-08-05T20:02:24.336Z,17.41
2022-08-05T20:04:53.000Z,17.36
2022-08-05T20:07:46.196Z,17.25
2022-08-05T20:10:11.666Z,17.21
2022-08-05T20:12:45.981Z,17.15
2022-08-05T20:15:48.851Z,17.04
2022-08-05T20:18:04.334Z,16.97
2022-08-05T20:20:37.995Z,16.98
2022-08-05T20:23:05.555Z,16.99
2022-08-05T20:25:40.197Z,16.96
2022-08-05T20:28:08.157Z,16.91
2022-08-05T20:30:40.514Z,16.87
2022-08-05T20:33:08.778Z,16.79
2022-08-05T20:35:40.628Z,16.71
2022-08-05T20:38:22.876Z,16.66
2022-08-05T20:40:55.363Z,16.63
2022-08-05T20:43:58.036Z,16.57
2022-08-05T20:46:18.513Z,16.54
2022-08-05T20:48:51.792Z,16.44
2022-08-05T20:51:21.088Z,16.40
2022-08-05T20:53:56.940Z,16.33
2022-08-05T20:56:32.971Z,16.24
2022-08-05T20:59:14.129Z,16.16
2022-08-05T21:01:45.724Z,16.05
2022-08-05T21:04:12.467Z,16.04
2022-08-05T21:06:45.797Z,15.99
2022-08-05T21:09:15.871Z,15.92
2022-08-05T21:12:10.353Z,15.86
2022-08-05T21:14:34.926Z,15.87
2022-08-05T21:17:05.442Z,15.84
2022-08-05T21:19:46.631Z,15.85
2022-08-05T21:22:17.785Z,15.77
2022-08-05T21:24:45.806Z,15.67
2022-08-05T21:27:16.953Z,15.63
2022-08-05T21:29:43.424Z,15.56
2022-08-05T21:32:17.192Z,15.51
2022-08-05T21:34:46.486Z,15.39
2022-08-05T21:37:32.929Z,15.30
2022-08-05T21:39:59.425Z,15.28
2022-08-05T21:42:30.880Z,15.27
2022-08-05T21:45:11.856Z,15.21
2022-08-05T21:47:56.254Z,15.15
2022-08-05T21:50:25.967Z,15.05
2022-08-05T21:52:52.503Z,14.88
2022-08-05T21:56:04.234Z,14.73
2022-08-05T21:58:10.410Z,14.67
2022-08-05T22:00:38.595Z,14.60
2022-08-05T22:03:06.888Z,14.54
2022-08-05T22:05:48.617Z,14.57
2022-08-05T22:08:22.110Z,14.61
2022-08-05T22:10:51.311Z,14.60
2022-08-05T22:14:19.680Z,14.59
2022-08-05T22:16:15.739Z,14.57
2022-08-05T22:18:54.283Z,14.52
2022-08-05T22:21:25.293Z,14.49
2022-08-05T22:24:13.237Z,14.44
2022-08-05T22:27:17.255Z,14.37
2022-08-05T22:29:44.114Z,14.30
2022-08-05T22:32:12.742Z,14.26
2022-08-05T22:34:49.484Z,14.26
2022-08-05T22:37:17.320Z,14.27
2022-08-05T22:39:44.969Z,14.26
2022-08-05T22:42:25.426Z,14.21
2022-08-05T22:44:56.551Z,14.11
2022-08-05T22:47:29.596Z,14.07
2022-08-05T22:50:19.259Z,14.12
2022-08-05T22:52:44.518Z,14.02
2022-08-05T22:55:18.980Z,13.99
2022-08-05T22:57:47.481Z,13.96
2022-08-05T23:00:18.245Z,13.79
2022-08-05T23:02:48.079Z,13.74
2022-08-05T23:05:15.420Z,13.71
2022-08-05T23:07:48.580Z,13.66
2022-08-05T23:10:20.216Z,13.63
2022-08-05T23:12:51.743Z,13.55
2022-08-05T23:15:26.819Z,13.49
2022-08-05T23:18:00.761Z,13.46
2022-08-05T23:20:29.733Z,13.38
2022-08-05T23:22:56.617Z,13.34
2022-08-05T23:25:51.362Z,13.21
2022-08-05T23:28:12.161Z,13.03
2022-08-05T23:30:40.113Z,12.98
2022-08-05T23:33:16.347Z,12.97
2022-08-05T23:35:56.100Z,12.87
2022-08-05T23:38:24.177Z,12.85
2022-08-05T23:40:52.572Z,12.80
2022-08-05T23:43:25.731Z,12.79
2022-08-05T23:46:19.660Z,12.78
2022-08-05T23:49:00.389Z,12.72
2022-08-05T23:51:55.353Z,12.63
2022-08-05T23:54:30.277Z,12.60
2022-08-05T23:57:04.610Z,12.57
